createdAt,value
2019-05-01T06:46:10.540Z,131.20
2019-05-01T06:51:38.156Z,125.60
2019-05-01T06:57:04.885Z,103.70
2019-05-01T07:02:34.821Z,94.90
2019-05-01T07:13:18.949Z,96.60
2019-05-01T07:18:49.373Z,87.90
2019-05-01T07:24:15.197Z,80.40
2019-05-01T07:29:39.753Z,77.70
2019-05-01T07:35:01.880Z,71.80
2019-05-01T07:40:29.991Z,81.90
2019-05-01T07:45:45.093Z,71.90
2019-05-01T07:51:09.459Z,75.70
2019-05-01T07:56:30.001Z,57.80
2019-05-01T08:01:54.342Z,60.60
2019-05-01T08:07:07.751Z,55.00
2019-05-01T08:12:23.877Z,59.30
2019-05-01T08:17:48.676Z,62.10
2019-05-01T08:23:11.993Z,75.00
2019-05-01T08:28:27.648Z,61.30
2019-05-01T08:33:52.447Z,69.10
2019-05-01T08:39:21.153Z,84.10
2019-05-01T08:44:59.797Z,70.50
2019-05-01T08:51:02.426Z,78.30
2019-05-01T08:57:52.224Z,68.30
2019-05-01T09:03:55.612Z,63.20
2019-05-01T09:09:47.866Z,62.70
2019-05-01T09:16:33.603Z,70.20
2019-05-01T09:22:36.945Z,74.10
2019-05-01T09:29:10.960Z,72.60
2019-05-01T09:34:24.948Z,63.40
2019-05-01T09:39:47.092Z,66.70
2019-05-01T09:45:04.497Z,69.80
2019-05-01T09:50:07.917Z,67.00
2019-05-01T09:55:42.472Z,68.60
2019-05-01T10:00:53.857Z,72.70
2019-05-01T10:05:57.718Z,76.10
2019-05-01T10:11:28.799Z,76.50
2019-05-01T10:16:22.833Z,100.70
2019-05-01T10:21:36.338Z,102.10
2019-05-01T10:26:40.645Z,80.40
2019-05-01T10:32:16.841Z,94.30
2019-05-01T10:37:23.780Z,101.00
2019-05-01T10:42:30.971Z,121.30
2019-05-01T10:47:51.562Z,139.90
2019-05-01T10:52:46.346Z,118.90
2019-05-01T10:57:51.663Z,114.40
2019-05-01T11:02:57.255Z,102.40
2019-05-01T11:08:01.317Z,84.70
2019-05-01T11:12:56.939Z,79.40
2019-05-01T11:18:16.433Z,72.50
2019-05-01T11:23:16.292Z,60.90
2019-05-01T11:28:18.084Z,51.00
2019-05-01T11:33:10.752Z,51.10
2019-05-01T11:38:05.149Z,42.40
2019-05-01T11:43:02.559Z,36.30
2019-05-01T11:47:56.832Z,36.20
2019-05-01T11:52:59.726Z,36.10
2019-05-01T11:58:10.405Z,36.20
2019-05-01T12:03:12.349Z,36.50
2019-05-01T12:08:13.984Z,35.60
2019-05-01T12:13:07.647Z,37.90
2019-05-01T12:18:03.454Z,35.60
2019-05-01T12:23:06.866Z,39.30
2019-05-01T12:28:00.031Z,37.30
2019-05-01T12:32:53.369Z,31.30
2019-05-01T12:37:49.473Z,31.10
2019-05-01T12:42:52.777Z,31.90
2019-05-01T12:47:46.927Z,33.30
2019-05-01T12:52:50.232Z,33.50
2019-05-01T12:57:44.033Z,33.80
2019-05-01T13:02:35.966Z,31.10
2019-05-01T13:07:31.908Z,37.90
2019-05-01T13:12:26.719Z,30.70
2019-05-01T13:17:20.961Z,30.10
2019-05-01T13:22:17.129Z,32.50
2019-05-01T13:27:13.434Z,29.70
2019-05-01T13:32:08.522Z,32.50
2019-05-01T13:37:03.526Z,32.80
2019-05-01T13:41:58.631Z,33.30
2019-05-01T13:46:55.099Z,31.50
2019-05-01T13:51:47.115Z,31.50
2019-05-01T13:56:40.363Z,31.70
2019-05-01T14:01:32.965Z,30.90
2019-05-01T14:06:25.057Z,30.00
2019-05-01T14:11:17.026Z,34.60
2019-05-01T14:16:18.099Z,31.50
2019-05-01T14:21:09.693Z,32.00
2019-05-01T14:26:02.545Z,30.50
2019-05-01T14:30:55.034Z,31.90
2019-05-01T14:35:47.656Z,33.00
2019-05-01T14:40:40.448Z,34.10
2019-05-01T14:45:33.287Z,31.10
2019-05-01T14:50:51.211Z,34.90
2019-05-01T14:55:51.038Z,36.20
2019-05-01T15:12:31.431Z,29.50
2019-05-01T15:23:04.561Z,33.60
2019-05-01T15:28:04.286Z,33.10
2019-05-01T15:43:57.908Z,37.20
2019-05-01T15:49:54.258Z,38.60
2019-05-01T16:01:25.033Z,40.20
2019-05-01T16:11:53.861Z,37.30
2019-05-01T16:16:51.680Z,42.60
2019-05-01T16:21:57.729Z,37.60
2019-05-01T16:27:13.280Z,39.10
2019-05-01T16:32:02.579Z,37.60
2019-05-01T16:36:58.884Z,39.00
2019-05-01T16:48:03.217Z,41.50
2019-05-01T17:11:44.129Z,39.60
2019-05-01T17:17:05.917Z,42.50
2019-05-01T17:22:21.900Z,40.10
2019-05-01T17:38:54.913Z,36.00
2019-05-01T17:44:03.038Z,42.30
2019-05-01T17:55:07.900Z,43.30
2019-05-01T18:05:56.057Z,42.70
2019-05-01T18:10:58.874Z,41.40
2019-05-01T18:16:49.161Z,50.90
2019-05-01T18:21:46.582Z,42.70
2019-05-01T18:27:09.494Z,43.40
2019-05-01T18:34:33.679Z,45.60
2019-05-01T18:40:03.708Z,41.90
2019-05-01T18:45:24.887Z,45.10
2019-05-01T18:56:47.573Z,48.10
2019-05-01T19:07:18.743Z,50.80
2019-05-01T19:13:11.489Z,50.40
2019-05-01T19:18:51.200Z,54.30
2019-05-01T19:24:43.455Z,51.20
2019-05-01T19:48:13.411Z,53.60
2019-05-01T20:04:21.366Z,56.30
2019-05-01T20:10:26.574Z,56.20
2019-05-01T20:15:58.264Z,55.70
2019-05-01T20:23:59.201Z,61.60
2019-05-01T20:29:56.764Z,57.80
2019-05-01T20:35:11.663Z,55.70
2019-05-01T20:43:52.748Z,62.50
2019-05-01T20:50:07.119Z,60.30
2019-05-01T20:55:20.668Z,56.90
2019-05-01T21:04:09.699Z,58.10
2019-05-01T21:10:58.823Z,59.10
2019-05-01T21:35:10.938Z,58.90
2019-05-01T21:49:04.437Z,56.80
2019-05-01T22:02:27.068Z,57.30
2019-05-01T22:08:05.753Z,56.30
2019-05-01T22:13:20.276Z,55.50
2019-05-01T22:19:37.035Z,55.70
2019-05-01T22:33:32.922Z,57.40
2019-05-01T22:41:44.542Z,62.00
